createdAt,value
2022-08-21T04:00:30.412Z,3.60
2022-08-21T04:11:35.267Z,3.90
2022-08-21T04:22:35.184Z,4.20
2022-08-21T04:33:35.013Z,4.30
2022-08-21T04:44:34.890Z,3.50
2022-08-21T04:55:34.773Z,4.60
2022-08-21T05:06:34.644Z,4.20
2022-08-21T05:17:35.529Z,4.90
2022-08-21T05:28:34.397Z,4.70
2022-08-21T05:40:05.217Z,6.50
2022-08-21T05:50:34.152Z,5.50
2022-08-21T06:01:34.104Z,4.80
2022-08-21T06:12:33.905Z,4.80
2022-08-21T06:23:33.801Z,5.40
2022-08-21T06:34:33.662Z,4.50
2022-08-21T06:45:33.538Z,5.20
2022-08-21T06:56:33.418Z,5.10
2022-08-21T07:07:33.294Z,4.20
2022-08-21T07:18:33.182Z,5.00
2022-08-21T07:29:33.076Z,4.50
2022-08-21T07:40:32.929Z,3.70
2022-08-21T07:51:32.806Z,4.40
2022-08-21T08:02:32.692Z,3.70
2022-08-21T08:13:32.598Z,4.70
2022-08-21T08:24:32.457Z,4.60
2022-08-21T08:35:32.341Z,5.10
2022-08-21T08:46:32.206Z,5.20
2022-08-21T08:57:32.079Z,5.00
2022-08-21T09:08:31.958Z,5.40
2022-08-21T09:19:31.847Z,5.10
2022-08-21T09:30:31.729Z,6.40
2022-08-21T09:41:31.598Z,5.30
2022-08-21T09:52:31.474Z,3.90
2022-08-21T10:03:31.352Z,4.20
2022-08-21T10:14:31.241Z,4.50
2022-08-21T10:25:32.142Z,4.30
2022-08-21T10:36:30.993Z,3.80
2022-08-21T10:47:30.887Z,4.00
2022-08-21T10:58:31.751Z,4.00
2022-08-21T11:09:30.633Z,3.80
2022-08-21T11:20:30.525Z,2.90
2022-08-21T11:31:30.399Z,4.20
2022-08-21T11:42:30.266Z,5.00
2022-08-21T11:53:30.149Z,2.60
2022-08-21T12:04:30.041Z,2.70
2022-08-21T12:15:29.946Z,2.70
2022-08-21T12:16:24.894Z,2.80
2022-08-21T12:17:24.897Z,3.60
2022-08-21T12:28:29.771Z,2.90
2022-08-21T12:39:29.659Z,3.00
2022-08-21T12:50:29.557Z,3.20
2022-08-21T13:01:29.488Z,3.40
2022-08-21T13:02:24.435Z,3.40
2022-08-21T13:03:24.415Z,3.60
2022-08-21T13:14:29.303Z,2.40
2022-08-21T13:15:24.289Z,2.70
2022-08-21T13:16:24.308Z,3.80
2022-08-21T13:27:29.155Z,3.30
2022-08-21T13:28:24.153Z,3.20
2022-08-21T13:29:24.260Z,3.80
2022-08-21T13:40:29.020Z,3.30
2022-08-21T13:51:28.901Z,2.80
2022-08-21T14:02:28.791Z,3.10
2022-08-21T14:13:28.708Z,2.60
2022-08-21T14:24:28.548Z,4.00
2022-08-21T14:35:28.422Z,2.90
2022-08-21T14:46:28.304Z,3.20
2022-08-21T14:57:28.184Z,3.40
2022-08-21T15:08:28.077Z,2.80
2022-08-21T15:19:27.952Z,2.10
2022-08-21T15:30:27.825Z,2.80
2022-08-21T15:41:27.709Z,3.50
2022-08-21T15:52:27.585Z,3.00
2022-08-21T16:03:27.468Z,4.60
2022-08-21T16:14:27.358Z,2.80
2022-08-21T16:25:27.251Z,3.30
2022-08-21T16:36:27.104Z,3.10
2022-08-21T16:47:27.537Z,3.80
2022-08-21T16:58:26.860Z,2.80
2022-08-21T17:09:26.754Z,3.50
2022-08-21T17:20:26.651Z,2.40
2022-08-21T17:31:26.504Z,2.70
2022-08-21T17:42:26.392Z,2.60
2022-08-21T17:53:26.278Z,2.80
2022-08-21T18:04:26.148Z,3.30
2022-08-21T18:15:26.031Z,2.90
2022-08-21T18:26:25.948Z,2.70
2022-08-21T18:37:25.788Z,2.50
2022-08-21T18:48:26.863Z,2.80
2022-08-21T18:59:25.547Z,2.80
2022-08-21T19:10:28.532Z,3.60
2022-08-21T19:21:26.320Z,2.90
2022-08-21T19:32:25.184Z,3.70
2022-08-21T19:43:25.065Z,2.80
2022-08-21T19:54:24.942Z,3.30
2022-08-21T20:05:24.824Z,4.20
2022-08-21T20:16:24.709Z,2.70
2022-08-21T20:27:24.577Z,2.70
2022-08-21T20:49:24.332Z,3.20
